sensor_id;sensor_type;location;lat;lon;timestamp;pressure;altitude;pressure_sealevel;temperature;humidity
31357;BME280;60001;48.404;11.738;2023-02-21T00:00:44;96736.47;;;6.35;66.27
31357;BME280;60001;48.404;11.738;2023-02-21T00:02:33;96736.69;;;6.33;66.17
31357;BME280;60001;48.404;11.738;2023-02-21T00:04:22;96739.50;;;6.31;66.37
31357;BME280;60001;48.404;11.738;2023-02-21T00:06:12;96736.88;;;6.31;66.25
31357;BME280;60001;48.404;11.738;2023-02-21T00:08:02;96736.88;;;6.31;66.53
31357;BME280;60001;48.404;11.738;2023-02-21T00:09:52;96741.31;;;6.31;66.86
31357;BME280;60001;48.404;11.738;2023-02-21T00:11:42;96737.09;;;6.30;66.45
31357;BME280;60001;48.404;11.738;2023-02-21T00:13:35;96739.94;;;6.28;66.44
31357;BME280;60001;48.404;11.738;2023-02-21T00:15:24;96736.72;;;6.26;66.50
31357;BME280;60001;48.404;11.738;2023-02-21T00:17:13;96733.31;;;6.26;66.68
31357;BME280;60001;48.404;11.738;2023-02-21T00:19:03;96734.28;;;6.25;66.36
31357;BME280;60001;48.404;11.738;2023-02-21T00:20:53;96724.66;;;6.19;66.61
31357;BME280;60001;48.404;11.738;2023-02-21T00:22:44;96732.31;;;6.20;66.67
31357;BME280;60001;48.404;11.738;2023-02-21T00:24:34;96729.09;;;6.18;67.27
31357;BME280;60001;48.404;11.738;2023-02-21T00:26:24;96740.03;;;6.15;67.29
31357;BME280;60001;48.404;11.738;2023-02-21T00:28:13;96733.16;;;6.14;66.88
31357;BME280;60001;48.404;11.738;2023-02-21T00:30:03;96729.97;;;6.12;66.79
31357;BME280;60001;48.404;11.738;2023-02-21T00:31:53;96725.13;;;6.09;67.08
31357;BME280;60001;48.404;11.738;2023-02-21T00:33:42;96728.78;;;6.08;67.16
31357;BME280;60001;48.404;11.738;2023-02-21T00:35:31;96722.94;;;6.06;67.32
31357;BME280;60001;48.404;11.738;2023-02-21T00:37:21;96721.53;;;6.03;67.60
31357;BME280;60001;48.404;11.738;2023-02-21T00:39:10;96726.41;;;6.00;67.63
31357;BME280;60001;48.404;11.738;2023-02-21T00:41:01;96733.47;;;5.99;67.84
31357;BME280;60001;48.404;11.738;2023-02-21T00:42:50;96731.88;;;5.98;67.89
31357;BME280;60001;48.404;11.738;2023-02-21T00:44:39;96726.81;;;5.97;68.05
31357;BME280;60001;48.404;11.738;2023-02-21T00:46:28;96717.56;;;5.94;68.16
31357;BME280;60001;48.404;11.738;2023-02-21T00:48:19;96698.25;;;5.82;68.09
31357;BME280;60001;48.404;11.738;2023-02-21T00:50:08;96713.56;;;5.92;68.58
31357;BME280;60001;48.404;11.738;2023-02-21T00:51:57;96718.38;;;5.88;68.14
31357;BME280;60001;48.404;11.738;2023-02-21T00:53:47;96718.59;;;5.87;68.67
31357;BME280;60001;48.404;11.738;2023-02-21T00:55:36;96717.00;;;5.86;68.46
31357;BME280;60001;48.404;11.738;2023-02-21T00:57:27;96715.81;;;5.82;68.50
31357;BME280;60001;48.404;11.738;2023-02-21T00:59:16;96714.78;;;5.83;68.68
31357;BME280;60001;48.404;11.738;2023-02-21T01:01:06;96711.59;;;5.81;69.00
31357;BME280;60001;48.404;11.738;2023-02-21T01:02:55;96708.97;;;5.81;68.27
31357;BME280;60001;48.404;11.738;2023-02-21T01:04:44;96703.13;;;5.78;69.16
31357;BME280;60001;48.404;11.738;2023-02-21T01:06:34;96706.56;;;5.79;68.85
31357;BME280;60001;48.404;11.738;2023-02-21T01:08:23;96699.91;;;5.76;68.68
31357;BME280;60001;48.404;11.738;2023-02-21T01:10:12;96706.78;;;5.77;68.93
31357;BME280;60001;48.404;11.738;2023-02-21T01:12:02;96713.22;;;5.75;69.10
31357;BME280;60001;48.404;11.738;2023-02-21T01:13:53;96704.34;;;5.76;69.21
31357;BME280;60001;48.404;11.738;2023-02-21T01:15:42;96707.97;;;5.75;68.81
31357;BME280;60001;48.404;11.738;2023-02-21T01:17:32;96710.03;;;5.73;68.98
31357;BME280;60001;48.404;11.738;2023-02-21T01:19:21;96707.63;;;5.71;69.04
31357;BME280;60001;48.404;11.738;2023-02-21T01:21:16;96702.41;;;5.65;69.14
31357;BME280;60001;48.404;11.738;2023-02-21T01:23:05;96701.19;;;5.67;68.90
31357;BME280;60001;48.404;11.738;2023-02-21T01:24:55;96692.72;;;5.65;69.24
31357;BME280;60001;48.404;11.738;2023-02-21T01:26:44;96692.94;;;5.64;68.97
31357;BME280;60001;48.404;11.738;2023-02-21T01:28:33;96697.38;;;5.63;69.06
31357;BME280;60001;48.404;11.738;2023-02-21T01:30:24;96694.16;;;5.61;69.45
31357;BME280;60001;48.404;11.738;2023-02-21T01:32:13;96693.56;;;5.59;69.49
31357;BME280;60001;48.404;11.738;2023-02-21T01:34:02;96689.13;;;5.60;69.88
31357;BME280;60001;48.404;11.738;2023-02-21T01:35:51;96695.38;;;5.59;69.32
31357;BME280;60001;48.404;11.738;2023-02-21T01:37:41;96691.16;;;5.58;70.09
31357;BME280;60001;48.404;11.738;2023-02-21T01:39:30;96686.53;;;5.53;69.82
31357;BME280;60001;48.404;11.738;2023-02-21T01:41:20;96686.72;;;5.58;69.87
31357;BME280;60001;48.404;11.738;2023-02-21T01:43:14;96687.75;;;5.57;69.61
31357;BME280;60001;48.404;11.738;2023-02-21T01:45:49;96687.13;;;5.55;69.84
31357;BME280;60001;48.404;11.738;2023-02-21T01:47:38;96685.53;;;5.54;70.12
31357;BME280;60001;48.404;11.738;2023-02-21T01:49:28;96688.16;;;5.54;70.33
31357;BME280;60001;48.404;11.738;2023-02-21T01:51:23;96681.31;;;5.53;70.28
31357;BME280;60001;48.404;11.738;2023-02-21T01:53:23;96677.09;;;5.52;70.39
31357;BME280;60001;48.404;11.738;2023-02-21T01:55:13;96672.25;;;5.49;70.36
31357;BME280;60001;48.404;11.738;2023-02-21T01:57:03;96673.91;;;5.43;70.50
31357;BME280;60001;48.404;11.738;2023-02-21T01:59:00;96675.53;;;5.44;70.22
31357;BME280;60001;48.404;11.738;2023-02-21T02:00:51;96666.25;;;5.42;70.28
31357;BME280;60001;48.404;11.738;2023-02-21T02:02:51;96669.88;;;5.41;70.94
31357;BME280;60001;48.404;11.738;2023-02-21T02:04:43;96657.22;;;5.38;70.90
31357;BME280;60001;48.404;11.738;2023-02-21T02:06:34;96663.03;;;5.40;70.71
31357;BME280;60001;48.404;11.738;2023-02-21T02:08:27;96654.59;;;5.38;70.82
31357;BME280;60001;48.404;11.738;2023-02-21T02:10:18;96666.69;;;5.39;70.36
31357;BME280;60001;48.404;11.738;2023-02-21T02:12:22;96663.03;;;5.40;70.79
31357;BME280;60001;48.404;11.738;2023-02-21T02:14:11;96663.03;;;5.40;71.23
31357;BME280;60001;48.404;11.738;2023-02-21T02:15:58;96655.19;;;5.40;70.41
31357;BME280;60001;48.404;11.738;2023-02-21T02:17:40;96657.81;;;5.40;71.03
31357;BME280;60001;48.404;11.738;2023-02-21T02:22:11;96657.22;;;5.38;70.94
31357;BME280;60001;48.404;11.738;2023-02-21T02:26:18;96640.34;;;5.27;70.67
31357;BME280;60001;48.404;11.738;2023-02-21T02:28:19;96657.63;;;5.35;70.50
31357;BME280;60001;48.404;11.738;2023-02-21T02:34:53;96648.59;;;5.31;70.52
31357;BME280;60001;48.404;11.738;2023-02-21T02:36:29;96649.63;;;5.30;70.93
31357;BME280;60001;48.404;11.738;2023-02-21T02:38:13;96646.59;;;5.26;70.96
31357;BME280;60001;48.404;11.738;2023-02-21T02:39:59;96651.25;;;5.24;71.12
31357;BME280;60001;48.404;11.738;2023-02-21T02:41:45;96650.66;;;5.22;70.70
31357;BME280;60001;48.404;11.738;2023-02-21T02:43:26;96649.25;;;5.19;70.61
31357;BME280;60001;48.404;11.738;2023-02-21T02:45:07;96642.63;;;5.17;70.67
31357;BME280;60001;48.404;11.738;2023-02-21T02:46:44;96644.66;;;5.15;71.39
31357;BME280;60001;48.404;11.738;2023-02-21T02:48:22;96650.06;;;5.13;71.26
31357;BME280;60001;48.404;11.738;2023-02-21T02:50:01;96645.84;;;5.12;70.68
31357;BME280;60001;48.404;11.738;2023-02-21T02:51:34;96645.06;;;5.12;71.13
31357;BME280;60001;48.404;11.738;2023-02-21T02:53:06;96647.69;;;5.12;71.08
31357;BME280;60001;48.404;11.738;2023-02-21T02:54:38;96647.88;;;5.10;71.25
31357;BME280;60001;48.404;11.738;2023-02-21T02:56:11;96642.25;;;5.07;71.06
31357;BME280;60001;48.404;11.738;2023-02-21T02:57:42;96646.69;;;5.06;70.60
31357;BME280;60001;48.404;11.738;2023-02-21T02:59:22;96638.84;;;5.00;70.97
31357;BME280;60001;48.404;11.738;2023-02-21T03:01:13;96647.13;;;5.03;70.48
31357;BME280;60001;48.404;11.738;2023-02-21T03:03:04;96629.44;;;4.92;70.85
31357;BME280;60001;48.404;11.738;2023-02-21T03:04:57;96651.75;;;5.01;70.80
31357;BME280;60001;48.404;11.738;2023-02-21T03:06:43;96646.72;;;5.00;71.18
31357;BME280;60001;48.404;11.738;2023-02-21T03:08:28;96650.56;;;4.97;70.91
31357;BME280;60001;48.404;11.738;2023-02-21T03:10:13;96640.53;;;4.94;71.12
31357;BME280;60001;48.404;11.738;2023-02-21T03:11:55;96635.47;;;4.92;70.88
31357;BME280;60001;48.404;11.738;2023-02-21T03:13:39;96637.13;;;4.87;71.31
31357;BME280;60001;48.404;11.738;2023-02-21T03:15:18;96638.72;;;4.88;71.11
31357;BME280;60001;48.404;11.738;2023-02-21T03:16:58;96636.28;;;4.86;71.28
31357;BME280;60001;48.404;11.738;2023-02-21T03:18:36;96639.34;;;4.83;71.23
31357;BME280;60001;48.404;11.738;2023-02-21T03:20:14;96641.94;;;4.83;71.15
31357;BME280;60001;48.404;11.738;2023-02-21T03:21:51;96643.19;;;4.81;71.11
31357;BME280;60001;48.404;11.738;2023-02-21T03:23:28;96644.16;;;4.80;71.02
31357;BME280;60001;48.404;11.738;2023-02-21T03:25:03;96643.56;;;4.78;71.27
31357;BME280;60001;48.404;11.738;2023-02-21T03:26:38;96642.78;;;4.77;71.48
31357;BME280;60001;48.404;11.738;2023-02-21T03:28:12;96636.16;;;4.75;70.74
31357;BME280;60001;48.404;11.738;2023-02-21T03:29:44;96639.78;;;4.74;70.95
31357;BME280;60001;48.404;11.738;2023-02-21T03:31:20;96636.53;;;4.72;71.48
31357;BME280;60001;48.404;11.738;2023-02-21T03:32:55;96643.38;;;4.73;71.47
31357;BME280;60001;48.404;11.738;2023-02-21T03:34:27;96638.34;;;4.71;70.81
31357;BME280;60001;48.404;11.738;2023-02-21T03:36:02;96626.09;;;4.65;70.89
31357;BME280;60001;48.404;11.738;2023-02-21T03:37:38;96637.97;;;4.67;71.54
31357;BME280;60001;48.404;11.738;2023-02-21T03:39:10;96642.59;;;4.65;71.46
31357;BME280;60001;48.404;11.738;2023-02-21T03:40:42;96643.59;;;4.64;70.98
31357;BME280;60001;48.404;11.738;2023-02-21T03:42:14;96633.78;;;4.60;71.12
31357;BME280;60001;48.404;11.738;2023-02-21T03:43:44;96635.59;;;4.59;71.33
31357;BME280;60001;48.404;11.738;2023-02-21T03:45:16;96637.59;;;4.57;71.60
31357;BME280;60001;48.404;11.738;2023-02-21T03:46:48;96638.59;;;4.56;71.18
31357;BME280;60001;48.404;11.738;2023-02-21T03:48:19;96635.19;;;4.56;71.67
31357;BME280;60001;48.404;11.738;2023-02-21T03:49:51;96624.94;;;4.54;71.66
31357;BME280;60001;48.404;11.738;2023-02-21T03:51:23;96636.19;;;4.55;71.19
31357;BME280;60001;48.404;11.738;2023-02-21T03:52:56;96633.00;;;4.53;71.31
31357;BME280;60001;48.404;11.738;2023-02-21T03:54:28;96626.97;;;4.52;72.19
31357;BME280;60001;48.404;11.738;2023-02-21T03:55:59;96625.34;;;4.51;71.91
31357;BME280;60001;48.404;11.738;2023-02-21T03:57:31;96628.38;;;4.48;71.94
31357;BME280;60001;48.404;11.738;2023-02-21T03:59:02;96629.38;;;4.47;71.49
31357;BME280;60001;48.404;11.738;2023-02-21T04:00:34;96624.53;;;4.44;71.90
31357;BME280;60001;48.404;11.738;2023-02-21T04:02:06;96624.53;;;4.44;71.40
31357;BME280;60001;48.404;11.738;2023-02-21T04:03:38;96625.56;;;4.43;71.33
31357;BME280;60001;48.404;11.738;2023-02-21T04:05:09;96624.16;;;4.40;71.53
31357;BME280;60001;48.404;11.738;2023-02-21T04:06:41;96615.31;;;4.35;72.02
31357;BME280;60001;48.404;11.738;2023-02-21T04:08:14;96620.97;;;4.38;71.95
31357;BME280;60001;48.404;11.738;2023-02-21T04:09:46;96619.53;;;4.36;71.83
31357;BME280;60001;48.404;11.738;2023-02-21T04:11:17;96621.13;;;4.37;72.02
31357;BME280;60001;48.404;11.738;2023-02-21T04:12:49;96624.38;;;4.39;72.08
31357;BME280;60001;48.404;11.738;2023-02-21T04:14:21;96627.16;;;4.37;72.39
31357;BME280;60001;48.404;11.738;2023-02-21T04:15:55;96620.34;;;4.36;72.11
31357;BME280;60001;48.404;11.738;2023-02-21T04:17:27;96632.41;;;4.37;72.99
31357;BME280;60001;48.404;11.738;2023-02-21T04:18:59;96635.81;;;4.38;72.42
31357;BME280;60001;48.404;11.738;2023-02-21T04:20:31;96639.25;;;4.38;72.67
31357;BME280;60001;48.404;11.738;2023-02-21T04:22:03;96633.81;;;4.40;72.41
31357;BME280;60001;48.404;11.738;2023-02-21T04:23:36;96631.41;;;4.38;73.16
31357;BME280;60001;48.404;11.738;2023-02-21T04:25:08;96643.84;;;4.43;73.15
31357;BME280;60001;48.404;11.738;2023-02-21T04:26:40;96637.63;;;4.44;72.38
31357;BME280;60001;48.404;11.738;2023-02-21T04:28:12;96631.41;;;4.45;73.35
31357;BME280;60001;48.404;11.738;2023-02-21T04:29:43;96630.41;;;4.46;73.16
31357;BME280;60001;48.404;11.738;2023-02-21T04:31:14;96627.56;;;4.48;73.15
31357;BME280;60001;48.404;11.738;2023-02-21T04:32:46;96632.59;;;4.49;73.10
31357;BME280;60001;48.404;11.738;2023-02-21T04:34:18;96623.53;;;4.52;73.33
31357;BME280;60001;48.404;11.738;2023-02-21T04:35:49;96625.34;;;4.51;73.26
31357;BME280;60001;48.404;11.738;2023-02-21T04:37:21;96626.13;;;4.52;73.05
31357;BME280;60001;48.404;11.738;2023-02-21T04:38:55;96621.75;;;4.52;72.80
31357;BME280;60001;48.404;11.738;2023-02-21T04:40:26;96621.75;;;4.52;72.80
31357;BME280;60001;48.404;11.738;2023-02-21T04:41:58;96621.75;;;4.52;73.29
31357;BME280;60001;48.404;11.738;2023-02-21T04:43:30;96615.88;;;4.50;72.78
31357;BME280;60001;48.404;11.738;2023-02-21T04:45:01;96627.34;;;4.49;72.65
31357;BME280;60001;48.404;11.738;2023-02-21T04:46:33;96620.53;;;4.48;73.30
31357;BME280;60001;48.404;11.738;2023-02-21T04:48:05;96618.13;;;4.47;73.20
31357;BME280;60001;48.404;11.738;2023-02-21T04:49:37;96624.97;;;4.48;73.66
31357;BME280;60001;48.404;11.738;2023-02-21T04:51:08;96615.50;;;4.47;73.16
31357;BME280;60001;48.404;11.738;2023-02-21T04:52:40;96610.28;;;4.47;73.55
31357;BME280;60001;48.404;11.738;2023-02-21T04:54:13;96616.31;;;4.47;73.61
31357;BME280;60001;48.404;11.738;2023-02-21T04:55:45;96610.50;;;4.45;73.73
31357;BME280;60001;48.404;11.738;2023-02-21T04:57:17;96615.72;;;4.45;73.33
31357;BME280;60001;48.404;11.738;2023-02-21T04:58:48;96618.94;;;4.47;74.01
31357;BME280;60001;48.404;11.738;2023-02-21T05:00:20;96613.91;;;4.46;73.19
31357;BME280;60001;48.404;11.738;2023-02-21T05:01:53;96616.31;;;4.47;73.82
31357;BME280;60001;48.404;11.738;2023-02-21T05:03:24;96614.72;;;4.46;73.69
31357;BME280;60001;48.404;11.738;2023-02-21T05:04:55;96607.88;;;4.45;73.22
31357;BME280;60001;48.404;11.738;2023-02-21T05:06:29;96608.84;;;4.44;73.34
31357;BME280;60001;48.404;11.738;2023-02-21T05:08:01;96610.28;;;4.47;73.53
31357;BME280;60001;48.404;11.738;2023-02-21T05:09:34;96613.69;;;4.47;73.60
31357;BME280;60001;48.404;11.738;2023-02-21T05:11:04;96604.84;;;4.48;73.81
31357;BME280;60001;48.404;11.738;2023-02-21T05:12:38;96611.06;;;4.47;73.27
31357;BME280;60001;48.404;11.738;2023-02-21T05:14:10;96601.44;;;4.41;73.92
31357;BME280;60001;48.404;11.738;2023-02-21T05:15:42;96609.47;;;4.46;73.49
31357;BME280;60001;48.404;11.738;2023-02-21T05:17:12;96608.84;;;4.44;73.54
31357;BME280;60001;48.404;11.738;2023-02-21T05:18:46;96614.09;;;4.44;73.63
31357;BME280;60001;48.404;11.738;2023-02-21T05:20:18;96607.47;;;4.42;74.24
31357;BME280;60001;48.404;11.738;2023-02-21T05:21:50;96605.06;;;4.40;74.32
31357;BME280;60001;48.404;11.738;2023-02-21T05:23:22;96607.47;;;4.42;74.51
31357;BME280;60001;48.404;11.738;2023-02-21T05:25:06;96604.84;;;4.42;74.61
31357;BME280;60001;48.404;11.738;2023-02-21T05:26:38;96610.09;;;4.42;74.35
31357;BME280;60001;48.404;11.738;2023-02-21T05:28:10;96611.09;;;4.40;73.93
31357;BME280;60001;48.404;11.738;2023-02-21T05:29:45;96609.28;;;4.41;74.41
31357;BME280;60001;48.404;11.738;2023-02-21T05:31:18;96610.28;;;4.40;74.02
31357;BME280;60001;48.404;11.738;2023-02-21T05:32:50;96612.09;;;4.39;73.71
31357;BME280;60001;48.404;11.738;2023-02-21T05:34:23;96615.53;;;4.40;74.58
31357;BME280;60001;48.404;11.738;2023-02-21T05:35:55;96609.66;;;4.38;74.00
31357;BME280;60001;48.404;11.738;2023-02-21T05:37:26;96614.09;;;4.37;73.75
31357;BME280;60001;48.404;11.738;2023-02-21T05:39:01;96614.31;;;4.36;73.94
31357;BME280;60001;48.404;11.738;2023-02-21T05:40:34;96609.50;;;4.33;74.50
31357;BME280;60001;48.404;11.738;2023-02-21T05:42:06;96614.94;;;4.31;74.22
31357;BME280;60001;48.404;11.738;2023-02-21T05:43:38;96609.91;;;4.30;74.57
31357;BME280;60001;48.404;11.738;2023-02-21T05:45:09;96616.72;;;4.31;74.73
31357;BME280;60001;48.404;11.738;2023-02-21T05:46:42;96616.94;;;4.29;74.42
31357;BME280;60001;48.404;11.738;2023-02-21T05:48:17;96616.13;;;4.29;74.56
31357;BME280;60001;48.404;11.738;2023-02-21T05:49:49;96620.19;;;4.25;74.48
31357;BME280;60001;48.404;11.738;2023-02-21T05:51:20;96623.38;;;4.27;74.97
31357;BME280;60001;48.404;11.738;2023-02-21T05:52:51;96627.59;;;4.28;74.22
31357;BME280;60001;48.404;11.738;2023-02-21T05:54:23;96622.38;;;4.28;74.73
31357;BME280;60001;48.404;11.738;2023-02-21T05:55:56;96623.38;;;4.27;74.74
31357;BME280;60001;48.404;11.738;2023-02-21T05:57:28;96621.56;;;4.27;74.90
31357;BME280;60001;48.404;11.738;2023-02-21T05:59:00;96624.59;;;4.24;74.33
31357;BME280;60001;48.404;11.738;2023-02-21T06:00:32;96620.19;;;4.25;74.60
31357;BME280;60001;48.404;11.738;2023-02-21T06:02:04;96627.00;;;4.26;74.66
31357;BME280;60001;48.404;11.738;2023-02-21T06:03:35;96624.59;;;4.24;74.43
31357;BME280;60001;48.404;11.738;2023-02-21T06:05:07;96623.97;;;4.22;75.02
31357;BME280;60001;48.404;11.738;2023-02-21T06:06:40;96628.41;;;4.22;74.51
31357;BME280;60001;48.404;11.738;2023-02-21T06:08:12;96632.84;;;4.21;74.78
31357;BME280;60001;48.404;11.738;2023-02-21T06:09:43;96638.88;;;4.22;75.50
31357;BME280;60001;48.404;11.738;2023-02-21T06:11:22;96634.44;;;4.22;75.39
31357;BME280;60001;48.404;11.738;2023-02-21T06:12:54;96635.25;;;4.23;75.00
31357;BME280;60001;48.404;11.738;2023-02-21T06:14:25;96639.47;;;4.24;75.38
31357;BME280;60001;48.404;11.738;2023-02-21T06:15:57;96640.28;;;4.24;75.14
31357;BME280;60001;48.404;11.738;2023-02-21T06:17:29;96636.47;;;4.20;75.13
31357;BME280;60001;48.404;11.738;2023-02-21T06:19:02;96641.69;;;4.27;75.45
31357;BME280;60001;48.404;11.738;2023-02-21T06:20:34;96632.63;;;4.23;75.45
31357;BME280;60001;48.404;11.738;2023-02-21T06:22:05;96662.59;;;4.27;75.08
31357;BME280;60001;48.404;11.738;2023-02-21T06:23:37;96652.72;;;4.29;74.86
31357;BME280;60001;48.404;11.738;2023-02-21T06:25:10;96649.09;;;4.30;75.39
31357;BME280;60001;48.404;11.738;2023-02-21T06:26:43;96651.13;;;4.34;74.92
31357;BME280;60001;48.404;11.738;2023-02-21T06:28:15;96646.91;;;4.40;75.40
31357;BME280;60001;48.404;11.738;2023-02-21T06:29:47;96649.09;;;4.43;75.11
31357;BME280;60001;48.404;11.738;2023-02-21T06:31:19;96649.28;;;4.48;75.71
31357;BME280;60001;48.404;11.738;2023-02-21T06:32:51;96656.31;;;4.54;75.24
31357;BME280;60001;48.404;11.738;2023-02-21T06:34:23;96660.91;;;4.59;75.10
31357;BME280;60001;48.404;11.738;2023-02-21T06:35:55;96652.88;;;4.60;74.77
31357;BME280;60001;48.404;11.738;2023-02-21T06:37:27;96665.16;;;4.66;75.23
31357;BME280;60001;48.404;11.738;2023-02-21T06:38:59;96662.91;;;4.70;74.58
31357;BME280;60001;48.404;11.738;2023-02-21T06:40:31;96664.13;;;4.74;74.56
31357;BME280;60001;48.404;11.738;2023-02-21T06:42:04;96662.09;;;4.76;74.46
31357;BME280;60001;48.404;11.738;2023-02-21T06:43:38;96660.88;;;4.79;74.43
31357;BME280;60001;48.404;11.738;2023-02-21T06:45:10;96670.16;;;4.81;74.52
31357;BME280;60001;48.404;11.738;2023-02-21T06:46:42;96664.28;;;4.86;74.29
31357;BME280;60001;48.404;11.738;2023-02-21T06:48:17;96668.47;;;4.93;74.55
31357;BME280;60001;48.404;11.738;2023-02-21T06:49:48;96670.88;;;5.02;74.94
31357;BME280;60001;48.404;11.738;2023-02-21T06:51:20;96667.63;;;5.06;74.64
31357;BME280;60001;48.404;11.738;2023-02-21T06:52:58;96657.56;;;5.10;74.16
31357;BME280;60001;48.404;11.738;2023-02-21T06:54:30;96665.16;;;5.18;74.15
31357;BME280;60001;48.404;11.738;2023-02-21T06:56:02;96654.47;;;5.19;74.23
31357;BME280;60001;48.404;11.738;2023-02-21T06:57:35;96670.81;;;5.21;74.21
31357;BME280;60001;48.404;11.738;2023-02-21T06:59:07;96655.50;;;5.18;73.39
31357;BME280;60001;48.404;11.738;2023-02-21T07:00:39;96665.94;;;5.25;73.55
31357;BME280;60001;48.404;11.738;2023-02-21T07:02:16;96668.97;;;5.29;74.10
31357;BME280;60001;48.404;11.738;2023-02-21T07:03:48;96659.06;;;5.31;74.03
31357;BME280;60001;48.404;11.738;2023-02-21T07:05:20;96667.66;;;5.44;74.38
31357;BME280;60001;48.404;11.738;2023-02-21T07:06:53;96669.59;;;5.56;74.69
31357;BME280;60001;48.404;11.738;2023-02-21T07:08:25;96668.94;;;5.67;74.30
31357;BME280;60001;48.404;11.738;2023-02-21T07:09:57;96666.00;;;5.82;74.59
31357;BME280;60001;48.404;11.738;2023-02-21T07:11:31;96664.13;;;5.95;73.50
31357;BME280;60001;48.404;11.738;2023-02-21T07:13:05;96664.25;;;6.07;73.74
31357;BME280;60001;48.404;11.738;2023-02-21T07:14:37;96672.59;;;6.22;72.98
31357;BME280;60001;48.404;11.738;2023-02-21T07:16:08;96661.19;;;6.35;72.60
31357;BME280;60001;48.404;11.738;2023-02-21T07:17:41;96649.97;;;6.46;72.21
31357;BME280;60001;48.404;11.738;2023-02-21T07:19:12;96665.53;;;6.66;71.52
31357;BME280;60001;48.404;11.738;2023-02-21T07:20:46;96664.38;;;6.80;71.30
31357;BME280;60001;48.404;11.738;2023-02-21T07:22:19;96661.91;;;6.85;70.27
31357;BME280;60001;48.404;11.738;2023-02-21T07:23:55;96665.25;;;6.93;69.88
31357;BME280;60001;48.404;11.738;2023-02-21T07:25:27;96674.31;;;6.97;69.62
31357;BME280;60001;48.404;11.738;2023-02-21T07:27:00;96674.88;;;6.99;69.00
31357;BME280;60001;48.404;11.738;2023-02-21T07:28:33;96674.44;;;7.02;69.14
31357;BME280;60001;48.404;11.738;2023-02-21T07:30:06;96681.09;;;7.04;68.56
31357;BME280;60001;48.404;11.738;2023-02-21T07:31:38;96687.72;;;7.07;68.88
31357;BME280;60001;48.404;11.738;2023-02-21T07:33:10;96677.44;;;7.05;68.53
31357;BME280;60001;48.404;11.738;2023-02-21T07:34:42;96683.47;;;7.06;68.27
31357;BME280;60001;48.404;11.738;2023-02-21T07:36:14;96677.78;;;7.09;68.31
31357;BME280;60001;48.404;11.738;2023-02-21T07:37:46;96688.81;;;7.18;68.23
31357;BME280;60001;48.404;11.738;2023-02-21T07:39:18;96688.94;;;7.23;68.37
31357;BME280;60001;48.404;11.738;2023-02-21T07:40:53;96689.44;;;7.31;68.37
31357;BME280;60001;48.404;11.738;2023-02-21T07:42:25;96694.16;;;7.41;68.14
31357;BME280;60001;48.404;11.738;2023-02-21T07:43:59;96681.53;;;7.50;68.11
31357;BME280;60001;48.404;11.738;2023-02-21T07:45:31;96688.28;;;7.57;67.63
31357;BME280;60001;48.404;11.738;2023-02-21T07:47:02;96680.78;;;7.61;66.97
31357;BME280;60001;48.404;11.738;2023-02-21T07:48:33;96691.28;;;7.61;67.02
31357;BME280;60001;48.404;11.738;2023-02-21T07:50:06;96683.53;;;7.66;67.22
31357;BME280;60001;48.404;11.738;2023-02-21T07:51:38;96684.34;;;7.66;67.25
31357;BME280;60001;48.404;11.738;2023-02-21T07:53:11;96685.06;;;7.74;67.00
31357;BME280;60001;48.404;11.738;2023-02-21T07:54:44;96693.06;;;7.79;67.24
31357;BME280;60001;48.404;11.738;2023-02-21T07:56:16;96697.22;;;7.86;67.16
31357;BME280;60001;48.404;11.738;2023-02-21T07:57:48;96695.28;;;7.93;67.13
31357;BME280;60001;48.404;11.738;2023-02-21T07:59:21;96698.63;;;8.01;67.42
31357;BME280;60001;48.404;11.738;2023-02-21T08:00:53;96698.06;;;8.10;67.10
31357;BME280;60001;48.404;11.738;2023-02-21T08:02:25;96697.97;;;8.17;67.02
31357;BME280;60001;48.404;11.738;2023-02-21T08:03:57;96690.19;;;8.22;66.41
31357;BME280;60001;48.404;11.738;2023-02-21T08:05:29;96689.28;;;8.28;66.14
31357;BME280;60001;48.404;11.738;2023-02-21T08:07:02;96693.78;;;8.39;66.81
31357;BME280;60001;48.404;11.738;2023-02-21T08:08:34;96684.88;;;8.52;66.72
31357;BME280;60001;48.404;11.738;2023-02-21T08:10:06;96700.88;;;8.62;66.10
31357;BME280;60001;48.404;11.738;2023-02-21T08:11:38;96697.13;;;8.70;65.24
31357;BME280;60001;48.404;11.738;2023-02-21T08:13:10;96685.88;;;8.74;65.46
31357;BME280;60001;48.404;11.738;2023-02-21T08:14:43;96695.63;;;8.86;65.46
31357;BME280;60001;48.404;11.738;2023-02-21T08:16:15;96700.53;;;8.94;64.62
31357;BME280;60001;48.404;11.738;2023-02-21T08:17:47;96693.88;;;9.03;64.53
31357;BME280;60001;48.404;11.738;2023-02-21T08:19:19;96691.47;;;9.13;64.27
31357;BME280;60001;48.404;11.738;2023-02-21T08:20:52;96694.28;;;9.23;63.86
31357;BME280;60001;48.404;11.738;2023-02-21T08:22:24;96695.53;;;9.32;63.62
31357;BME280;60001;48.404;11.738;2023-02-21T08:23:56;96698.38;;;9.43;62.93
31357;BME280;60001;48.404;11.738;2023-02-21T08:25:28;96692.28;;;9.42;61.97
31357;BME280;60001;48.404;11.738;2023-02-21T08:26:59;96696.94;;;9.52;61.84
31357;BME280;60001;48.404;11.738;2023-02-21T08:28:31;96698.19;;;9.61;62.08
31357;BME280;60001;48.404;11.738;2023-02-21T08:30:05;96680.53;;;9.61;62.21
31357;BME280;60001;48.404;11.738;2023-02-21T08:31:39;96697.78;;;9.81;61.86
31357;BME280;60001;48.404;11.738;2023-02-21T08:33:11;96701.06;;;9.88;61.31
31357;BME280;60001;48.404;11.738;2023-02-21T08:34:43;96697.78;;;9.98;61.05
31357;BME280;60001;48.404;11.738;2023-02-21T08:36:15;96708.50;;;10.08;60.60
31357;BME280;60001;48.404;11.738;2023-02-21T08:37:48;96691.56;;;10.21;61.19
31357;BME280;60001;48.404;11.738;2023-02-21T08:39:20;96692.34;;;10.33;61.07
31357;BME280;60001;48.404;11.738;2023-02-21T08:40:52;96692.31;;;10.50;60.51
31357;BME280;60001;48.404;11.738;2023-02-21T08:42:25;96694.88;;;10.61;60.05
31357;BME280;60001;48.404;11.738;2023-02-21T08:43:56;96690.22;;;10.68;58.83
31357;BME280;60001;48.404;11.738;2023-02-21T08:45:30;96695.50;;;10.68;57.77
31357;BME280;60001;48.404;11.738;2023-02-21T08:47:02;96695.09;;;10.77;57.85